Time;durP1;ratioP1;P1;durP2;ratioP2;P2;SDS_P1;SDS_P2;PMS_P1;PMS_P2;Temp;Humidity;BMP_temperature;BMP_pressure;BME280_temperature;BME280_humidity;BME280_pressure;Samples;Min_cycle;Max_cycle;Signal;HPM_P1;HPM_P2
2023/12/10 00:00:05;;;;;;;18.35;3.35;;;;;;;11.52;67.53;96066.06;4905121;28;20196;-79
2023/12/10 00:02:31;;;;;;;18.10;3.35;;;;;;;11.27;69.22;96073.09;4900368;28;20269;-79
2023/12/10 00:04:56;;;;;;;27.38;5.95;;;;;;;11.39;68.59;96089.09;4903499;28;20199;-78
2023/12/10 00:07:22;;;;;;;13.18;3.28;;;;;;;11.50;68.73;96094.22;4888713;28;20289;-78
2023/12/10 00:09:47;;;;;;;16.52;3.60;;;;;;;11.62;68.11;96095.41;4871102;28;20309;-79
2023/12/10 00:12:12;;;;;;;17.75;4.05;;;;;;;11.58;67.33;96091.81;4890260;28;20683;-78
2023/12/10 00:14:38;;;;;;;21.90;5.35;;;;;;;11.61;67.64;96093.84;4906309;28;20648;-79
2023/12/10 00:17:03;;;;;;;20.42;5.07;;;;;;;11.60;67.83;96097.53;4890254;28;20483;-79
2023/12/10 00:19:29;;;;;;;19.20;4.75;;;;;;;11.68;67.11;96095.34;4895363;28;20178;-79
2023/12/10 00:21:54;;;;;;;23.90;5.50;;;;;;;11.53;66.33;96104.09;4888156;28;20169;-78
2023/12/10 00:24:22;;;;;;;17.85;4.53;;;;;;;11.61;67.51;96119.16;4891850;28;20140;-78
2023/12/10 00:26:47;;;;;;;20.92;4.35;;;;;;;11.57;67.03;96111.09;4878718;28;20190;-78
2023/12/10 00:29:13;;;;;;;15.05;4.55;;;;;;;11.60;67.53;96101.94;4871944;28;21153;-79
2023/12/10 00:31:42;;;;;;;17.10;4.88;;;;;;;11.52;67.44;96113.00;4872590;28;20617;-79
2023/12/10 00:34:07;;;;;;;23.27;4.88;;;;;;;11.36;67.26;96120.97;4907444;28;20223;-79
2023/12/10 00:36:33;;;;;;;20.15;4.32;;;;;;;11.52;67.23;96123.41;4890039;28;20321;-79
2023/12/10 00:38:59;;;;;;;22.15;4.55;;;;;;;11.44;66.86;96122.94;4893875;28;20766;-78
2023/12/10 00:41:24;;;;;;;19.25;4.75;;;;;;;11.57;66.82;96134.56;4893071;28;20589;-79
2023/12/10 00:43:50;;;;;;;16.35;3.92;;;;;;;11.60;66.31;96130.63;4889569;28;20527;-78
2023/12/10 00:46:16;;;;;;;21.60;4.80;;;;;;;11.48;67.33;96128.41;4904425;28;20174;-79
2023/12/10 00:48:41;;;;;;;22.50;4.40;;;;;;;11.36;67.11;96147.03;4906862;28;20683;-78
2023/12/10 00:51:07;;;;;;;19.08;3.97;;;;;;;11.33;67.39;96137.13;4911247;28;20182;-78
2023/12/10 00:53:32;;;;;;;21.48;4.85;;;;;;;11.29;67.11;96141.31;4907573;28;20205;-79
2023/12/10 00:55:58;;;;;;;14.45;3.47;;;;;;;11.34;66.25;96138.69;4918752;28;20293;-79
2023/12/10 00:58:23;;;;;;;21.83;4.30;;;;;;;11.41;65.60;96146.97;4870154;28;20268;-80
2023/12/10 01:00:49;;;;;;;22.17;4.55;;;;;;;11.34;65.59;96159.53;4892723;28;20366;-79
2023/12/10 01:03:14;;;;;;;22.08;4.22;;;;;;;11.32;65.50;96153.03;4906847;28;20264;-79
2023/12/10 01:05:40;;;;;;;21.67;3.92;;;;;;;11.30;65.34;96150.72;4889783;28;20193;-79
2023/12/10 01:08:05;;;;;;;15.38;3.47;;;;;;;11.44;65.35;96167.25;4905926;28;20171;-78
2023/12/10 01:10:30;;;;;;;17.45;3.03;;;;;;;11.17;65.04;96170.38;4882135;28;20321;-78
2023/12/10 01:12:56;;;;;;;18.58;4.55;;;;;;;11.12;65.90;96187.84;4906822;28;20275;-79
2023/12/10 01:15:29;;;;;;;17.10;3.78;;;;;;;11.29;66.07;96188.22;4906049;28;20228;-80
2023/12/10 01:18:01;;;;;;;16.80;3.63;;;;;;;11.34;64.66;96190.03;4889956;28;20369;-80
2023/12/10 01:20:30;;;;;;;16.50;3.78;;;;;;;11.37;64.31;96200.69;4905009;28;20182;-78
2023/12/10 01:22:56;;;;;;;13.75;2.85;;;;;;;11.14;63.24;96199.56;4898483;28;20237;-80
2023/12/10 01:25:24;;;;;;;16.98;3.60;;;;;;;11.12;63.73;96204.28;4874306;28;20667;-80
2023/12/10 01:27:51;;;;;;;13.82;2.67;;;;;;;11.00;62.77;96201.22;4905163;28;20205;-80
2023/12/10 01:30:16;;;;;;;7.88;2.53;;;;;;;11.13;62.85;96192.03;4905339;28;20193;-81
2023/12/10 01:32:42;;;;;;;14.50;3.03;;;;;;;10.79;64.07;96198.72;4889301;28;20292;-79
2023/12/10 01:35:08;;;;;;;14.27;2.70;;;;;;;11.09;64.21;96206.63;4924111;28;20374;-79
2023/12/10 01:37:33;;;;;;;15.30;4.22;;;;;;;10.93;63.81;96195.53;4904291;28;20194;-81
2023/12/10 01:40:00;;;;;;;10.30;2.50;;;;;;;11.00;64.18;96209.81;4903652;28;20271;-79
2023/12/10 01:42:25;;;;;;;7.20;2.47;;;;;;;11.12;63.56;96211.28;4887673;28;20185;-80
2023/12/10 01:44:51;;;;;;;13.43;2.72;;;;;;;11.17;63.36;96219.06;4890152;28;20696;-81
2023/12/10 01:47:18;;;;;;;9.07;3.25;;;;;;;11.11;64.05;96199.34;4889876;28;20303;-79
2023/12/10 01:49:45;;;;;;;10.10;1.77;;;;;;;11.11;63.37;96210.53;4889533;28;20600;-79
2023/12/10 01:52:11;;;;;;;8.98;2.75;;;;;;;11.03;63.25;96205.88;4903595;28;20292;-79
2023/12/10 01:54:36;;;;;;;15.57;2.83;;;;;;;11.11;62.99;96228.75;4909713;28;20687;-79
2023/12/10 01:57:02;;;;;;;9.18;2.30;;;;;;;10.86;63.51;96253.13;4885080;28;20273;-80
2023/12/10 01:59:29;;;;;;;13.18;2.30;;;;;;;10.64;63.82;96262.09;4894003;28;20193;-78
2023/12/10 02:01:54;;;;;;;14.18;3.20;;;;;;;10.72;63.41;96257.34;4893643;28;20194;-80
2023/12/10 02:04:19;;;;;;;11.77;3.10;;;;;;;10.76;64.12;96258.38;4877249;28;20659;-81
2023/12/10 02:06:46;;;;;;;10.95;2.05;;;;;;;10.82;63.65;96263.28;4925833;28;20280;-79
2023/12/10 02:09:13;;;;;;;8.88;2.63;;;;;;;10.73;64.01;96279.72;4894707;28;20229;-79
2023/12/10 02:11:39;;;;;;;9.43;3.30;;;;;;;10.75;63.91;96273.22;4912623;28;20189;-78
2023/12/10 02:14:05;;;;;;;9.40;2.15;;;;;;;10.85;63.52;96301.81;4904677;28;20332;-79
2023/12/10 02:16:31;;;;;;;15.25;2.50;;;;;;;10.94;63.85;96285.66;4909151;28;20276;-79
2023/12/10 02:18:56;;;;;;;10.57;1.98;;;;;;;10.89;62.93;96296.84;4876649;28;20226;-79
2023/12/10 02:21:21;;;;;;;12.45;2.78;;;;;;;10.97;63.86;96306.72;4925152;28;20636;-78
2023/12/10 02:23:51;;;;;;;9.13;2.10;;;;;;;10.78;63.46;96292.72;4925734;28;20582;-78
2023/12/10 02:26:16;;;;;;;12.23;2.42;;;;;;;10.66;64.86;96290.47;4911758;28;20234;-79
2023/12/10 02:28:42;;;;;;;11.75;3.05;;;;;;;10.68;63.81;96304.75;4923224;28;20366;-79
2023/12/10 02:31:08;;;;;;;12.27;2.90;;;;;;;10.68;63.26;96294.34;4906771;28;20746;-79
2023/12/10 02:33:33;;;;;;;11.82;3.05;;;;;;;10.71;64.48;96305.25;4892634;28;20822;-80
2023/12/10 02:35:59;;;;;;;9.52;2.72;;;;;;;10.93;64.51;96317.94;4908541;28;20292;-78
2023/12/10 02:38:24;;;;;;;12.90;3.22;;;;;;;11.02;63.32;96301.50;4894448;28;20286;-81
2023/12/10 02:40:50;;;;;;;14.55;2.60;;;;;;;11.01;63.46;96305.13;4907870;28;20175;-79
2023/12/10 02:43:17;;;;;;;12.45;2.53;;;;;;;11.14;63.91;96310.78;4907782;28;20278;-79
2023/12/10 02:45:43;;;;;;;13.32;2.25;;;;;;;11.05;63.11;96303.56;4893133;28;20185;-80
2023/12/10 02:48:08;;;;;;;10.32;2.55;;;;;;;11.06;63.17;96299.13;4908747;28;20170;-78
2023/12/10 02:50:34;;;;;;;10.80;2.33;;;;;;;10.95;62.82;96298.41;4884922;28;20255;-78
2023/12/10 02:52:59;;;;;;;18.27;3.47;;;;;;;10.87;63.09;96289.31;4896670;28;20280;-78
2023/12/10 02:55:25;;;;;;;12.40;2.55;;;;;;;10.63;63.63;96296.19;4909168;28;20111;-82
2023/12/10 02:57:50;;;;;;;10.73;2.33;;;;;;;10.68;63.53;96315.16;4899989;28;20205;-82
2023/12/10 03:00:16;;;;;;;11.00;2.05;;;;;;;10.57;63.63;96328.47;4875952;28;20289;-79
2023/12/10 03:02:42;;;;;;;11.10;2.53;;;;;;;10.85;62.40;96329.69;4890503;28;20244;-79
2023/12/10 03:05:08;;;;;;;18.48;3.60;;;;;;;10.71;62.50;96337.31;4893054;28;20667;-80
2023/12/10 03:07:33;;;;;;;13.77;2.63;;;;;;;10.66;62.71;96335.47;4878972;28;20179;-80
2023/12/10 03:09:59;;;;;;;10.80;2.53;;;;;;;10.78;62.55;96335.19;4875385;28;20589;-80
2023/12/10 03:12:25;;;;;;;13.30;3.30;;;;;;;10.71;63.43;96328.69;4872479;28;20407;-79
2023/12/10 03:14:50;;;;;;;13.52;2.80;;;;;;;10.78;62.10;96329.19;4921416;28;20269;-78
2023/12/10 03:17:15;;;;;;;19.48;2.78;;;;;;;10.72;63.34;96330.25;4936162;28;20304;-80
2023/12/10 03:19:41;;;;;;;11.20;2.88;;;;;;;10.66;62.90;96345.91;4876123;28;20655;-81
2023/12/10 03:22:06;;;;;;;14.00;2.40;;;;;;;10.61;63.23;96356.31;4875246;28;20301;-80
2023/12/10 03:24:32;;;;;;;18.13;3.58;;;;;;;10.68;63.04;96359.41;4908315;28;20197;-81
2023/12/10 03:26:57;;;;;;;11.40;3.08;;;;;;;10.61;63.29;96361.53;4891217;28;20211;-80
2023/12/10 03:29:23;;;;;;;14.40;2.75;;;;;;;10.72;63.70;96367.47;4875171;28;20301;-80
2023/12/10 03:31:48;;;;;;;11.32;2.92;;;;;;;10.65;62.88;96382.59;4890362;28;20221;-79
2023/12/10 03:34:13;;;;;;;10.68;3.03;;;;;;;10.68;62.27;96379.47;4910231;28;20313;-79
2023/12/10 03:36:39;;;;;;;10.57;2.30;;;;;;;10.30;63.83;96387.56;4919951;28;20111;-80
2023/12/10 03:39:04;;;;;;;13.43;2.95;;;;;;;10.57;62.50;96402.13;4874780;28;20206;-80
2023/12/10 03:41:30;;;;;;;13.80;3.50;;;;;;;10.71;62.77;96397.19;4896914;28;20777;-78
2023/12/10 03:43:55;;;;;;;11.57;2.78;;;;;;;10.71;62.73;96412.00;4885595;28;20193;-78
2023/12/10 03:46:21;;;;;;;11.25;2.50;;;;;;;10.73;62.79;96400.28;4875170;28;20352;-79
2023/12/10 03:48:46;;;;;;;14.48;3.00;;;;;;;10.48;63.32;96414.13;4897960;28;20185;-78
2023/12/10 03:51:12;;;;;;;12.57;4.13;;;;;;;10.72;62.68;96422.16;4891858;28;20197;-78
2023/12/10 03:53:37;;;;;;;11.15;2.47;;;;;;;10.75;63.00;96413.06;4909171;28;20208;-78
2023/12/10 03:56:03;;;;;;;10.27;2.65;;;;;;;10.59;63.44;96420.88;4915257;28;20221;-78
2023/12/10 03:58:28;;;;;;;13.93;2.75;;;;;;;10.20;64.23;96415.41;4903594;28;20231;-81
2023/12/10 04:00:54;;;;;;;11.18;2.97;;;;;;;10.28;64.26;96412.28;4910621;28;20221;-78
2023/12/10 04:03:19;;;;;;;8.85;2.08;;;;;;;10.18;64.22;96420.88;4926892;28;20225;-79
2023/12/10 04:05:44;;;;;;;11.38;3.00;;;;;;;10.42;63.04;96426.38;4874843;28;20199;-79
2023/12/10 04:08:10;;;;;;;11.15;2.38;;;;;;;10.42;63.47;96430.81;4907126;28;20248;-79
2023/12/10 04:10:35;;;;;;;14.10;2.88;;;;;;;10.39;63.83;96442.50;4885835;28;20204;-79
2023/12/10 04:13:01;;;;;;;12.07;2.97;;;;;;;10.50;63.43;96438.06;4883418;28;20226;-78
2023/12/10 04:15:27;;;;;;;11.07;2.63;;;;;;;10.47;63.85;96446.41;4888589;28;20206;-79
2023/12/10 04:17:52;;;;;;;17.80;3.63;;;;;;;10.28;63.66;96446.91;4888694;28;20272;-77
2023/12/10 04:20:18;;;;;;;13.88;2.85;;;;;;;10.52;62.81;96440.41;4883860;28;20588;-77
2023/12/10 04:22:43;;;;;;;14.10;3.22;;;;;;;10.41;63.28;96444.84;4874440;28;20204;-78
2023/12/10 04:25:09;;;;;;;18.35;3.85;;;;;;;10.52;63.92;96456.03;4889687;28;20189;-78
2023/12/10 04:27:34;;;;;;;11.05;2.15;;;;;;;10.53;62.95;96447.97;4889715;28;20723;-78
2023/12/10 04:30:00;;;;;;;15.15;3.45;;;;;;;10.69;63.11;96448.72;4905863;28;20268;-78
2023/12/10 04:32:26;;;;;;;14.07;3.63;;;;;;;10.43;63.64;96448.72;4911899;28;20209;-78
2023/12/10 04:34:51;;;;;;;11.88;2.13;;;;;;;10.44;63.35;96449.53;4900400;28;20281;-78
2023/12/10 04:37:17;;;;;;;12.75;2.83;;;;;;;10.45;63.56;96451.88;4903445;28;20656;-80
2023/12/10 04:39:43;;;;;;;11.60;2.60;;;;;;;10.43;63.60;96448.72;4873013;28;20554;-78
2023/12/10 04:42:08;;;;;;;13.05;2.42;;;;;;;10.47;64.00;96449.03;4891226;28;20133;-79
2023/12/10 04:44:33;;;;;;;14.80;2.72;;;;;;;10.29;63.76;96448.44;4915170;28;20509;-80
2023/12/10 04:46:59;;;;;;;12.80;2.85;;;;;;;10.50;63.06;96456.28;4910046;28;20199;-79
2023/12/10 04:49:25;;;;;;;13.15;2.95;;;;;;;10.28;63.96;96446.09;4921931;28;20296;-80
2023/12/10 04:51:50;;;;;;;9.60;2.72;;;;;;;10.37;63.27;96441.97;4923915;28;20189;-79
2023/12/10 04:54:16;;;;;;;12.95;3.00;;;;;;;10.34;64.30;96444.31;4896642;28;20314;-78
2023/12/10 04:56:41;;;;;;;7.85;2.08;;;;;;;10.35;62.60;96435.47;4874673;28;20221;-80
2023/12/10 04:59:07;;;;;;;11.73;3.42;;;;;;;10.47;62.52;96460.19;4896049;28;20288;-79
2023/12/10 05:01:32;;;;;;;16.50;2.85;;;;;;;10.39;62.56;96446.94;4883693;28;20271;-80
2023/12/10 05:03:58;;;;;;;14.45;2.50;;;;;;;10.48;62.48;96456.53;4918975;28;20206;-81
2023/12/10 05:06:23;;;;;;;11.88;2.35;;;;;;;10.47;62.58;96455.00;4907263;28;20746;-77
2023/12/10 05:08:49;;;;;;;8.98;2.40;;;;;;;10.53;62.46;96458.38;4891195;28;20715;-79
2023/12/10 05:11:14;;;;;;;9.63;2.42;;;;;;;10.21;63.55;96469.78;4893258;28;20189;-79
2023/12/10 05:13:40;;;;;;;11.13;2.45;;;;;;;10.43;63.34;96476.59;4912894;28;20213;-78
2023/12/10 05:16:05;;;;;;;13.48;3.13;;;;;;;10.32;63.73;96472.44;4874310;28;20280;-79
2023/12/10 05:18:31;;;;;;;11.57;2.75;;;;;;;10.20;63.63;96486.44;4883493;28;20629;-79
2023/12/10 05:20:56;;;;;;;10.35;1.80;;;;;;;9.97;64.79;96482.47;4873446;28;20272;-80
2023/12/10 05:23:22;;;;;;;12.45;2.83;;;;;;;10.14;64.20;96482.25;4889748;28;20204;-80
2023/12/10 05:25:47;;;;;;;12.93;2.20;;;;;;;10.23;63.31;96472.13;4888627;28;20233;-79
2023/12/10 05:28:13;;;;;;;16.83;2.38;;;;;;;10.17;63.51;96492.16;4888994;28;20640;-80
2023/12/10 05:30:38;;;;;;;14.90;2.53;;;;;;;10.23;63.29;96485.13;4884231;28;20190;-78
2023/12/10 05:33:04;;;;;;;10.65;2.33;;;;;;;10.28;63.89;96491.13;4871901;28;20213;-79
2023/12/10 05:35:29;;;;;;;13.30;3.28;;;;;;;10.23;63.38;96487.72;4904547;28;20333;-80
2023/12/10 05:37:54;;;;;;;8.48;2.90;;;;;;;10.13;63.48;96497.09;4922773;28;20694;-80
2023/12/10 05:40:20;;;;;;;17.35;3.47;;;;;;;10.20;64.15;96496.84;4903913;28;20230;-78
2023/12/10 05:42:46;;;;;;;11.93;2.35;;;;;;;10.03;63.81;96489.25;4871375;28;20654;-79
2023/12/10 05:45:11;;;;;;;12.10;1.98;;;;;;;10.19;63.41;96504.91;4888593;28;20324;-79
2023/12/10 05:47:37;;;;;;;10.50;1.95;;;;;;;10.28;63.16;96504.16;4883321;28;20637;-79
2023/12/10 05:50:03;;;;;;;9.80;2.65;;;;;;;10.12;63.13;96508.50;4879004;28;20280;-78
2023/12/10 05:52:28;;;;;;;12.40;2.85;;;;;;;10.42;62.34;96525.25;4903374;28;20414;-80
2023/12/10 05:54:54;;;;;;;13.27;2.78;;;;;;;10.36;61.53;96530.72;4870189;28;20141;-81
2023/12/10 05:57:19;;;;;;;9.57;2.10;;;;;;;10.23;62.36;96526.75;4872614;28;20600;-79
2023/12/10 05:59:45;;;;;;;9.82;1.85;;;;;;;10.03;63.46;96520.47;4903186;28;20184;-80
2023/12/10 06:02:11;;;;;;;13.05;2.90;;;;;;;10.04;62.84;96535.06;4902897;28;20202;-79
2023/12/10 06:04:36;;;;;;;8.70;2.38;;;;;;;10.22;63.00;96531.19;4902425;28;20344;-79
2023/12/10 06:07:01;;;;;;;11.90;2.13;;;;;;;10.16;62.89;96537.44;4886059;28;20166;-79
2023/12/10 06:09:27;;;;;;;7.15;1.95;;;;;;;10.13;61.95;96553.53;4871091;28;20731;-79
2023/12/10 06:11:53;;;;;;;11.30;2.22;;;;;;;10.38;61.60;96568.44;4887963;28;20166;-79
2023/12/10 06:14:19;;;;;;;9.82;2.30;;;;;;;10.22;62.28;96567.59;4887225;28;20642;-79
2023/12/10 06:16:44;;;;;;;12.07;1.95;;;;;;;10.17;62.49;96564.22;4885270;28;20257;-79
2023/12/10 06:19:10;;;;;;;11.10;2.28;;;;;;;10.40;61.55;96583.78;4889302;28;20201;-78
2023/12/10 06:21:37;;;;;;;13.68;2.45;;;;;;;10.29;62.09;96575.16;4888196;28;20182;-79
2023/12/10 06:24:03;;;;;;;8.75;2.20;;;;;;;10.54;61.64;96586.69;4915862;28;20198;-79
2023/12/10 06:26:28;;;;;;;10.38;2.80;;;;;;;10.41;62.49;96577.56;4898214;28;20184;-79
2023/12/10 06:28:54;;;;;;;12.05;3.55;;;;;;;10.26;62.91;96578.28;4906428;28;20217;-78
2023/12/10 06:31:20;;;;;;;19.65;3.15;;;;;;;10.19;62.81;96577.75;4885012;28;20689;-78
2023/12/10 06:33:46;;;;;;;10.30;2.72;;;;;;;10.35;62.47;96591.59;4884432;28;20592;-77
2023/12/10 06:36:11;;;;;;;7.93;2.40;;;;;;;10.44;61.94;96603.84;4903998;28;20221;-79
2023/12/10 06:38:37;;;;;;;9.90;2.40;;;;;;;10.38;62.36;96591.09;4885397;28;20308;-78
2023/12/10 06:41:03;;;;;;;15.35;2.72;;;;;;;10.61;61.30;96606.22;4886186;28;20423;-78
2023/12/10 06:43:28;;;;;;;7.53;2.28;;;;;;;10.59;61.09;96605.72;4907969;28;20262;-78
2023/12/10 06:45:58;;;;;;;10.30;3.05;;;;;;;10.72;60.37;96616.66;4905881;28;20279;-79
2023/12/10 06:48:23;;;;;;;10.85;2.63;;;;;;;10.62;61.04;96612.22;4893858;28;20272;-79
2023/12/10 06:50:48;;;;;;;12.88;2.65;;;;;;;10.65;61.42;96596.84;4913831;28;20233;-79
2023/12/10 06:53:14;;;;;;;9.73;1.73;;;;;;;10.63;61.42;96613.78;4892480;28;20284;-78
2023/12/10 06:55:40;;;;;;;8.80;1.95;;;;;;;10.62;61.56;96623.41;4875074;28;20313;-79
2023/12/10 06:58:05;;;;;;;11.00;2.35;;;;;;;10.62;61.69;96627.84;4904023;28;20248;-80
2023/12/10 07:00:31;;;;;;;10.30;2.35;;;;;;;10.39;62.04;96636.91;4876058;28;20621;-79
2023/12/10 07:02:56;;;;;;;10.48;2.95;;;;;;;10.66;60.69;96634.09;4890680;28;20275;-81
2023/12/10 07:05:22;;;;;;;8.75;2.30;;;;;;;10.78;61.11;96628.63;4908913;28;20740;-78
2023/12/10 07:07:47;;;;;;;10.25;2.22;;;;;;;10.75;60.16;96642.97;4894825;28;20213;-79
2023/12/10 07:10:13;;;;;;;8.82;1.88;;;;;;;10.59;60.63;96644.75;4907166;28;20167;-78
2023/12/10 07:12:39;;;;;;;9.07;2.10;;;;;;;10.90;60.07;96651.81;4924240;28;20209;-79
2023/12/10 07:15:05;;;;;;;9.68;1.92;;;;;;;11.11;59.33;96660.47;4909690;28;20213;-79
2023/12/10 07:17:31;;;;;;;11.15;2.45;;;;;;;10.92;60.31;96657.59;4923362;28;20189;-79
2023/12/10 07:19:56;;;;;;;18.27;2.22;;;;;;;10.98;59.46;96664.34;4906277;28;20220;-79
2023/12/10 07:22:22;;;;;;;12.05;2.30;;;;;;;10.96;60.55;96663.81;4907304;28;20311;-79
2023/12/10 07:24:47;;;;;;;8.43;1.70;;;;;;;10.83;60.25;96659.88;4904363;28;20649;-80
2023/12/10 07:27:12;;;;;;;11.20;2.10;;;;;;;10.86;60.06;96669.78;4892408;28;20209;-79
2023/12/10 07:29:38;;;;;;;5.32;1.92;;;;;;;10.62;60.39;96675.47;4917625;28;20643;-79
2023/12/10 07:32:04;;;;;;;13.68;1.92;;;;;;;10.79;60.32;96674.47;4874618;28;20735;-78
2023/12/10 07:34:29;;;;;;;10.30;1.95;;;;;;;10.86;60.65;96672.41;4873546;28;20204;-79
2023/12/10 07:36:54;;;;;;;12.70;2.25;;;;;;;10.79;60.90;96679.69;4872773;28;20227;-80
2023/12/10 07:39:20;;;;;;;9.77;1.67;;;;;;;10.85;60.41;96678.66;4893500;28;20716;-79
2023/12/10 07:41:45;;;;;;;11.68;1.98;;;;;;;10.65;61.16;96680.16;4910623;28;20197;-80
2023/12/10 07:44:11;;;;;;;8.63;1.95;;;;;;;10.92;60.65;96686.22;4891267;28;20201;-78
2023/12/10 07:46:36;;;;;;;9.57;1.85;;;;;;;10.83;60.97;96684.13;4880793;28;20353;-78
2023/12/10 07:49:01;;;;;;;9.18;1.42;;;;;;;10.79;60.60;96692.69;4890117;28;20143;-78
2023/12/10 07:51:27;;;;;;;9.88;1.77;;;;;;;10.69;61.73;96690.84;4906786;28;20765;-78
2023/12/10 07:53:52;;;;;;;10.55;2.53;;;;;;;10.07;63.90;96684.59;4897759;28;20208;-78
2023/12/10 07:56:18;;;;;;;8.93;2.60;;;;;;;10.35;62.68;96687.88;4910556;28;20348;-79
2023/12/10 07:58:43;;;;;;;10.88;2.67;;;;;;;10.50;62.92;96700.94;4899950;28;20659;-78
2023/12/10 08:01:11;;;;;;;10.68;2.53;;;;;;;10.38;63.38;96697.78;4905867;28;20304;-79
2023/12/10 08:03:37;;;;;;;11.35;2.70;;;;;;;10.56;62.35;96686.91;4888224;28;20613;-78
2023/12/10 08:06:03;;;;;;;8.18;2.05;;;;;;;10.57;62.24;96701.47;4891549;28;20205;-78
2023/12/10 08:08:29;;;;;;;8.98;1.95;;;;;;;10.58;61.74;96704.88;4906749;28;20602;-78
2023/12/10 08:10:54;;;;;;;11.38;2.58;;;;;;;10.82;61.70;96694.81;4892444;28;20189;-79
2023/12/10 08:13:19;;;;;;;12.52;1.98;;;;;;;10.59;61.95;96689.03;4872471;28;20325;-79
2023/12/10 08:15:45;;;;;;;11.40;1.98;;;;;;;10.78;61.08;96706.75;4874334;28;20201;-79
2023/12/10 08:18:10;;;;;;;9.70;2.25;;;;;;;10.66;61.86;96702.56;4909794;28;20189;-78
2023/12/10 08:20:36;;;;;;;13.27;3.75;;;;;;;10.63;62.19;96697.88;4893861;28;20275;-78
2023/12/10 08:23:01;;;;;;;15.15;2.03;;;;;;;10.84;61.26;96708.34;4890189;28;20725;-79
2023/12/10 08:25:29;;;;;;;4.95;1.75;;;;;;;10.87;60.76;96707.84;4891414;28;20206;-80
2023/12/10 08:27:54;;;;;;;12.13;2.40;;;;;;;10.86;61.14;96716.66;4891257;28;20292;-80
2023/12/10 08:30:20;;;;;;;11.68;2.72;;;;;;;10.77;61.48;96726.03;4889712;28;20232;-80
2023/12/10 08:32:45;;;;;;;10.65;2.13;;;;;;;10.86;62.00;96734.91;4888909;28;20651;-80
2023/12/10 08:35:11;;;;;;;9.23;1.90;;;;;;;10.96;60.79;96734.94;4876855;28;20248;-79
2023/12/10 08:37:38;;;;;;;8.80;1.88;;;;;;;10.75;61.00;96728.13;4884326;28;20197;-80
2023/12/10 08:40:04;;;;;;;15.57;2.47;;;;;;;10.89;61.56;96744.81;4904618;28;20416;-80
2023/12/10 08:42:30;;;;;;;7.65;1.85;;;;;;;11.05;60.46;96738.63;4906331;28;20272;-80
2023/12/10 08:44:57;;;;;;;11.48;2.33;;;;;;;10.87;61.51;96739.84;4914629;28;20200;-78
2023/12/10 08:47:22;;;;;;;13.13;3.03;;;;;;;10.94;62.42;96741.44;4891679;28;20268;-81
2023/12/10 08:49:48;;;;;;;11.75;1.92;;;;;;;11.01;62.69;96742.75;4890902;28;20245;-79
2023/12/10 08:52:13;;;;;;;10.48;2.10;;;;;;;10.88;62.29;96735.44;4886423;28;20283;-79
2023/12/10 08:54:39;;;;;;;11.15;2.22;;;;;;;11.12;61.38;96746.19;4873878;28;20191;-79
2023/12/10 08:57:04;;;;;;;6.78;1.95;;;;;;;11.06;61.74;96737.56;4875283;28;20262;-79
2023/12/10 08:59:29;;;;;;;8.57;2.33;;;;;;;10.86;62.67;96747.94;4864964;28;20266;-78
2023/12/10 09:01:55;;;;;;;13.32;2.17;;;;;;;10.95;61.86;96746.41;4905217;28;20129;-80
2023/12/10 09:04:20;;;;;;;14.35;2.63;;;;;;;11.03;62.27;96748.47;4883642;28;20245;-79
2023/12/10 09:06:46;;;;;;;11.32;2.60;;;;;;;11.24;61.74;96761.56;4888700;28;20272;-80
2023/12/10 09:09:11;;;;;;;11.93;2.20;;;;;;;11.13;62.16;96767.81;4907121;28;20154;-80
2023/12/10 09:11:37;;;;;;;9.68;2.00;;;;;;;11.20;62.46;96781.38;4876005;28;20654;-79
2023/12/10 09:14:02;;;;;;;10.80;2.20;;;;;;;11.18;62.17;96770.41;4872612;28;20276;-79
2023/12/10 09:16:28;;;;;;;6.00;2.33;;;;;;;11.22;61.88;96777.47;4896560;28;20293;-80
2023/12/10 09:18:53;;;;;;;10.40;2.80;;;;;;;11.18;62.88;96780.84;4904983;28;20152;-79
2023/12/10 09:21:20;;;;;;;9.88;2.60;;;;;;;11.23;62.90;96778.25;4910584;28;20151;-79
2023/12/10 09:23:45;;;;;;;11.65;2.38;;;;;;;11.04;63.75;96790.97;4898668;28;20276;-79
2023/12/10 09:26:10;;;;;;;10.85;2.40;;;;;;;11.02;63.98;96796.44;4925081;28;20363;-81
2023/12/10 09:28:36;;;;;;;11.90;2.13;;;;;;;11.25;62.55;96797.00;4877197;28;20212;-79
2023/12/10 09:31:02;;;;;;;11.70;2.95;;;;;;;11.07;63.22;96806.09;4904510;28;20202;-79
2023/12/10 09:33:27;;;;;;;8.63;3.10;;;;;;;11.18;62.73;96806.91;4888142;28;20225;-79
2023/12/10 09:35:53;;;;;;;10.82;2.80;;;;;;;11.24;63.45;96821.50;4893524;28;20592;-80
2023/12/10 09:38:18;;;;;;;15.40;3.28;;;;;;;11.25;62.96;96815.25;4907629;28;20260;-78
2023/12/10 09:40:44;;;;;;;9.55;1.65;;;;;;;11.05;64.01;96808.97;4874409;28;20295;-80
2023/12/10 09:43:09;;;;;;;11.55;3.00;;;;;;;11.07;63.56;96824.34;4885820;28;20284;-78
2023/12/10 09:45:35;;;;;;;10.82;2.72;;;;;;;11.28;63.27;96819.19;4888404;28;20170;-78
2023/12/10 09:48:01;;;;;;;10.23;2.88;;;;;;;11.28;63.20;96825.16;4872497;28;20102;-78
2023/12/10 09:50:27;;;;;;;8.88;2.38;;;;;;;11.36;63.51;96824.66;4900239;28;20267;-79
2023/12/10 09:52:54;;;;;;;10.38;1.85;;;;;;;11.42;62.75;96825.47;4887538;28;20367;-78
2023/12/10 09:55:19;;;;;;;11.35;2.30;;;;;;;11.36;62.84;96816.84;4903070;28;20190;-78
2023/12/10 09:57:45;;;;;;;8.93;2.63;;;;;;;11.21;63.52;96806.41;4919948;28;20122;-78
2023/12/10 10:00:11;;;;;;;13.50;2.65;;;;;;;11.25;62.91;96812.66;4885615;28;20183;-79
2023/12/10 10:02:36;;;;;;;10.65;2.17;;;;;;;11.29;63.44;96818.91;4909797;28;20220;-80
2023/12/10 10:05:03;;;;;;;8.23;2.20;;;;;;;11.49;63.12;96817.38;4885894;28;20682;-78
2023/12/10 10:07:29;;;;;;;14.50;2.58;;;;;;;11.49;62.94;96815.56;4893376;28;20627;-79
2023/12/10 10:09:55;;;;;;;12.05;2.25;;;;;;;11.27;62.95;96815.00;4886871;28;20284;-79
2023/12/10 10:12:20;;;;;;;15.85;2.40;;;;;;;11.16;64.22;96814.19;4919217;28;20174;-79
2023/12/10 10:14:56;;;;;;;14.98;2.67;;;;;;;11.34;63.47;96810.31;4910032;28;20170;-77
2023/12/10 10:17:26;;;;;;;8.45;1.90;;;;;;;11.35;63.52;96806.69;4887347;28;20231;-78
2023/12/10 10:19:51;;;;;;;7.65;2.10;;;;;;;11.21;63.65;96795.97;4903053;28;20194;-78
2023/12/10 10:22:17;;;;;;;9.30;2.42;;;;;;;11.23;63.39;96801.69;4884881;28;20214;-78
2023/12/10 10:24:43;;;;;;;8.65;2.10;;;;;;;11.20;63.85;96800.38;4891562;28;20252;-78
2023/12/10 10:27:08;;;;;;;15.82;2.65;;;;;;;11.04;64.35;96793.56;4906388;28;20366;-78
2023/12/10 10:29:34;;;;;;;9.80;2.55;;;;;;;11.18;64.34;96802.47;4900297;28;20281;-78
2023/12/10 10:32:00;;;;;;;14.75;2.40;;;;;;;11.04;64.49;96806.59;4905580;28;20724;-79
2023/12/10 10:34:26;;;;;;;13.70;3.55;;;;;;;10.94;65.11;96811.78;4893167;28;20283;-78
2023/12/10 10:36:52;;;;;;;12.80;2.17;;;;;;;10.94;65.17;96812.56;4905725;28;20205;-81
2023/12/10 10:39:17;;;;;;;9.40;2.30;;;;;;;11.05;65.08;96803.75;4888522;28;20205;-80
2023/12/10 10:41:43;;;;;;;10.55;2.65;;;;;;;11.13;64.27;96805.06;4924938;28;20656;-80
2023/12/10 10:44:08;;;;;;;10.40;2.72;;;;;;;11.30;63.50;96804.84;4924823;28;20437;-80
2023/12/10 10:46:34;;;;;;;12.85;2.85;;;;;;;11.28;64.04;96795.72;4897258;28;20210;-79
2023/12/10 10:49:00;;;;;;;10.52;2.33;;;;;;;11.10;65.51;96789.16;4909195;28;20694;-78
2023/12/10 10:51:27;;;;;;;9.25;2.45;;;;;;;11.24;64.64;96780.59;4908749;28;20285;-79
2023/12/10 10:53:54;;;;;;;15.65;3.33;;;;;;;11.19;64.87;96771.97;4909270;28;20303;-79
2023/12/10 10:56:20;;;;;;;13.63;3.63;;;;;;;11.29;65.13;96779.81;4912488;28;20258;-79
2023/12/10 10:58:45;;;;;;;14.95;2.50;;;;;;;11.27;65.66;96779.28;4889059;28;20277;-79
2023/12/10 11:01:41;;;;;;;11.68;3.28;;;;;;;11.46;64.71;96776.19;4891132;28;20209;-78
2023/12/10 11:04:15;;;;;;;14.40;3.17;;;;;;;11.44;64.59;96766.78;4885023;28;20321;-79
2023/12/10 11:06:41;;;;;;;12.43;2.53;;;;;;;11.37;65.38;96762.88;4908713;28;20715;-79
2023/12/10 11:09:07;;;;;;;10.70;2.75;;;;;;;11.48;65.14;96774.09;4909078;28;20350;-78
2023/12/10 11:11:39;;;;;;;10.52;3.20;;;;;;;11.47;64.92;96769.94;4891710;28;20213;-79
2023/12/10 11:14:37;;;;;;;8.57;2.80;;;;;;;11.47;64.62;96762.91;4896161;28;20280;-79
2023/12/10 11:17:06;;;;;;;17.38;2.90;;;;;;;11.34;65.32;96763.41;4861574;28;20227;-78
2023/12/10 11:19:32;;;;;;;12.98;3.08;;;;;;;11.39;65.01;96761.56;4875989;28;20614;-79